KAL772 RKPC-RKSI
Flight info
| Callsign | KAL772 |
|---|---|
| Flight time | N/A |
| Altitude | 23000 |
| Route | KAMIT2E KAMIT Y722 OLMEN OLMEN2H |
| Aircraft | B789/H-SDE1E2E3FGHIJ2J3J4J5M1RWXY/LB1D1 |
Departure
| Time | 2025-09-05 13:22 |
|---|---|
| Airport | Jeju International Airport (RKPC) |
Arrival
| Time | N/A |
|---|---|
| Airport | Incheon International Airport (RKSI) |
| Time | Latitude | Longitude | Altitude | Speed | Heading |
|---|---|---|---|---|---|
| 2025-09-05 13:02 | 33.50716 | 126.49178 | 99 ft | 0 kts | 155° |
| 2025-09-05 13:11 | 33.50718 | 126.49177 | 100 ft | 2 kts | 155° |
| 2025-09-05 13:12 | 33.50756 | 126.49159 | 99 ft | 2 kts | 163° |
| 2025-09-05 13:12 | 33.50782 | 126.49153 | 99 ft | 2 kts | 182° |
| 2025-09-05 13:12 | 33.50793 | 126.49155 | 98 ft | 2 kts | 202° |
| 2025-09-05 13:13 | 33.50813 | 126.49174 | 98 ft | 1 kts | 233° |
| 2025-09-05 13:13 | 33.50816 | 126.49180 | 97 ft | 1 kts | 235° |
| 2025-09-05 13:14 | 33.50823 | 126.49192 | 98 ft | 0 kts | 237° |
| 2025-09-05 13:16 | 33.50814 | 126.49175 | 98 ft | 7 kts | 238° |
| 2025-09-05 13:17 | 33.50713 | 126.48979 | 102 ft | 19 kts | 238° |
| 2025-09-05 13:17 | 33.50581 | 126.48721 | 101 ft | 21 kts | 237° |
| 2025-09-05 13:18 | 33.50563 | 126.48556 | 101 ft | 6 kts | 332° |
| 2025-09-05 13:18 | 33.50587 | 126.48386 | 101 ft | 19 kts | 239° |
| 2025-09-05 13:18 | 33.50495 | 126.48207 | 101 ft | 31 kts | 239° |
| 2025-09-05 13:19 | 33.50294 | 126.47817 | 102 ft | 16 kts | 238° |
| 2025-09-05 13:20 | 33.50008 | 126.47255 | 100 ft | 18 kts | 237° |
| 2025-09-05 13:20 | 33.49908 | 126.46928 | 101 ft | 15 kts | 322° |
| 2025-09-05 13:21 | 33.50018 | 126.46894 | 99 ft | 5 kts | 60° |
| 2025-09-05 13:21 | 33.50381 | 126.47605 | 101 ft | 121 kts | 58° |
| 2025-09-05 13:22 | 33.51680 | 126.50084 | 936 ft | 206 kts | 60° |
| 2025-09-05 13:22 | 33.53653 | 126.52569 | 2663 ft | 229 kts | 44° |
| 2025-09-05 13:22 | 33.54901 | 126.53943 | 3074 ft | 255 kts | 43° |
| 2025-09-05 13:23 | 33.58259 | 126.55781 | 4676 ft | 279 kts | 18° |
| 2025-09-05 13:24 | 33.63772 | 126.58327 | 8415 ft | 292 kts | 22° |
| 2025-09-05 13:24 | 33.67639 | 126.60198 | 10504 ft | 314 kts | 20° |
| 2025-09-05 13:25 | 33.72029 | 126.62320 | 11508 ft | 370 kts | 21° |
| 2025-09-05 13:25 | 33.76904 | 126.64692 | 13616 ft | 384 kts | 20° |
| 2025-09-05 13:26 | 33.82246 | 126.67284 | 15725 ft | 396 kts | 21° |
| 2025-09-05 13:26 | 33.87425 | 126.69805 | 17692 ft | 407 kts | 21° |
| 2025-09-05 13:26 | 33.90034 | 126.71075 | 18589 ft | 412 kts | 21° |
| 2025-09-05 13:27 | 33.95444 | 126.73670 | 20176 ft | 424 kts | 17° |
| 2025-09-05 13:28 | 34.04250 | 126.74923 | 22840 ft | 432 kts | 5° |
| 2025-09-05 13:28 | 34.10284 | 126.75556 | 22952 ft | 431 kts | 5° |
| 2025-09-05 13:29 | 34.16186 | 126.76185 | 22954 ft | 422 kts | 5° |
| 2025-09-05 13:29 | 34.22038 | 126.76801 | 22941 ft | 422 kts | 5° |
| 2025-09-05 13:30 | 34.27907 | 126.77426 | 22953 ft | 423 kts | 5° |
| 2025-09-05 13:30 | 34.30844 | 126.77737 | 22954 ft | 423 kts | 5° |
| 2025-09-05 13:30 | 34.36723 | 126.78362 | 22957 ft | 423 kts | 5° |
| 2025-09-05 13:31 | 34.42552 | 126.78982 | 22956 ft | 423 kts | 5° |
| 2025-09-05 13:32 | 34.51360 | 126.79921 | 22962 ft | 424 kts | 5° |
| 2025-09-05 13:32 | 34.56242 | 126.80442 | 22966 ft | 423 kts | 5° |
| 2025-09-05 13:33 | 34.62418 | 126.81102 | 22975 ft | 475 kts | 5° |
| 2025-09-05 13:33 | 34.69280 | 126.81837 | 22977 ft | 504 kts | 5° |
| 2025-09-05 13:34 | 34.76307 | 126.82592 | 22972 ft | 508 kts | 4° |
| 2025-09-05 13:34 | 34.79827 | 126.82969 | 22972 ft | 508 kts | 4° |
| 2025-09-05 13:34 | 34.86888 | 126.83730 | 22977 ft | 508 kts | 4° |
| 2025-09-05 13:35 | 34.93893 | 126.84483 | 22972 ft | 508 kts | 4° |
| 2025-09-05 13:36 | 35.04454 | 126.85624 | 22974 ft | 507 kts | 4° |
| 2025-09-05 13:36 | 35.11493 | 126.86385 | 22970 ft | 507 kts | 4° |
| 2025-09-05 13:37 | 35.18527 | 126.87148 | 22968 ft | 507 kts | 4° |
| 2025-09-05 13:37 | 35.25555 | 126.87911 | 22971 ft | 507 kts | 4° |
| 2025-09-05 13:38 | 35.32585 | 126.88677 | 22970 ft | 507 kts | 4° |
| 2025-09-05 13:38 | 35.36100 | 126.89059 | 22965 ft | 507 kts | 4° |
| 2025-09-05 13:38 | 35.43127 | 126.89826 | 22965 ft | 507 kts | 4° |
| 2025-09-05 13:39 | 35.50155 | 126.90594 | 22965 ft | 506 kts | 4° |
| 2025-09-05 13:40 | 35.60656 | 126.91742 | 22964 ft | 507 kts | 4° |
| 2025-09-05 13:40 | 35.67689 | 126.92513 | 22960 ft | 507 kts | 4° |
| 2025-09-05 13:41 | 35.74723 | 126.93285 | 22961 ft | 507 kts | 4° |
| 2025-09-05 13:41 | 35.81761 | 126.94059 | 22960 ft | 507 kts | 4° |
| 2025-09-05 13:42 | 35.88798 | 126.94834 | 22957 ft | 507 kts | 4° |
| 2025-09-05 13:42 | 35.92268 | 126.95217 | 22957 ft | 507 kts | 4° |
| 2025-09-05 13:42 | 35.99295 | 126.95994 | 22935 ft | 501 kts | 4° |
| 2025-09-05 13:43 | 36.06117 | 126.96751 | 22314 ft | 484 kts | 4° |
| 2025-09-05 13:44 | 36.15935 | 126.97840 | 21401 ft | 461 kts | 4° |
| 2025-09-05 13:44 | 36.22228 | 126.98540 | 20817 ft | 448 kts | 3° |
| 2025-09-05 13:45 | 36.28392 | 126.99226 | 20244 ft | 441 kts | 3° |
| 2025-09-05 13:45 | 36.34488 | 126.99906 | 19682 ft | 438 kts | 3° |
| 2025-09-05 13:46 | 36.40531 | 127.00301 | 19154 ft | 431 kts | 355° |
| 2025-09-05 13:46 | 36.43004 | 127.00206 | 18937 ft | 430 kts | 356° |
| 2025-09-05 13:46 | 36.48971 | 126.99994 | 18416 ft | 426 kts | 356° |
| 2025-09-05 13:47 | 36.54883 | 126.99774 | 17837 ft | 424 kts | 356° |
| 2025-09-05 13:48 | 36.63408 | 126.99469 | 17835 ft | 403 kts | 355° |
| 2025-09-05 13:48 | 36.69004 | 126.99188 | 17835 ft | 403 kts | 348° |
| 2025-09-05 13:48 | 36.71619 | 126.98182 | 17853 ft | 398 kts | 332° |
| 2025-09-05 13:49 | 36.76372 | 126.94552 | 17569 ft | 403 kts | 323° |
| 2025-09-05 13:49 | 36.80879 | 126.90527 | 17319 ft | 390 kts | 321° |
| 2025-09-05 13:50 | 36.85223 | 126.86575 | 16656 ft | 382 kts | 321° |
| 2025-09-05 13:50 | 36.89475 | 126.82707 | 16025 ft | 374 kts | 321° |
| 2025-09-05 13:51 | 36.93690 | 126.78873 | 15103 ft | 376 kts | 321° |
| 2025-09-05 13:52 | 37.00015 | 126.73118 | 13886 ft | 373 kts | 321° |
| 2025-09-05 13:52 | 37.04200 | 126.69306 | 12972 ft | 371 kts | 321° |
| 2025-09-05 13:53 | 37.08326 | 126.65523 | 12006 ft | 369 kts | 321° |
| 2025-09-05 13:53 | 37.12207 | 126.61963 | 11127 ft | 324 kts | 321° |
| 2025-09-05 13:54 | 37.15769 | 126.58707 | 10134 ft | 312 kts | 321° |
| 2025-09-05 13:54 | 37.17512 | 126.57110 | 9602 ft | 309 kts | 321° |